createdAt,value
2023-01-10T00:00:41.543Z,3.47
2023-01-10T00:03:09.840Z,3.49
2023-01-10T00:05:37.259Z,3.56
2023-01-10T00:08:05.270Z,3.46
2023-01-10T00:10:32.580Z,3.29
2023-01-10T00:13:17.783Z,3.47
2023-01-10T00:15:45.166Z,3.56
2023-01-10T00:18:11.907Z,3.50
2023-01-10T00:20:38.358Z,3.61
2023-01-10T00:23:04.830Z,3.60
2023-01-10T00:25:33.337Z,3.78
2023-01-10T00:28:10.769Z,3.97
2023-01-10T00:30:40.686Z,4.11
2023-01-10T00:33:07.932Z,4.20
2023-01-10T00:35:34.707Z,4.19
2023-01-10T00:38:05.634Z,4.18
2023-01-10T00:40:33.227Z,4.12
2023-01-10T00:43:19.008Z,4.20
2023-01-10T00:45:46.464Z,4.27
2023-01-10T00:48:14.108Z,4.28
2023-01-10T00:50:41.893Z,4.25
2023-01-10T00:53:08.769Z,4.26
2023-01-10T00:55:36.148Z,4.30
2023-01-10T00:58:02.706Z,4.24
2023-01-10T01:00:29.171Z,4.25
2023-01-10T01:02:55.733Z,4.33
2023-01-10T01:05:22.219Z,4.41
2023-01-10T01:07:49.750Z,4.42
2023-01-10T01:10:28.697Z,4.48
2023-01-10T01:13:00.271Z,4.52
2023-01-10T01:15:27.219Z,4.51
2023-01-10T01:17:53.725Z,4.50
2023-01-10T01:20:21.171Z,4.57
2023-01-10T01:22:47.606Z,4.59
2023-01-10T01:25:14.070Z,4.58
2023-01-10T01:27:40.495Z,4.51
2023-01-10T01:30:08.710Z,4.49
2023-01-10T01:32:35.553Z,4.51
2023-01-10T01:35:04.367Z,4.52
2023-01-10T01:37:30.775Z,4.51
2023-01-10T01:39:57.283Z,4.48
2023-01-10T01:42:35.657Z,4.51
2023-01-10T01:45:08.265Z,4.49
2023-01-10T01:47:49.955Z,4.55
2023-01-10T01:50:22.800Z,4.55
2023-01-10T01:52:51.883Z,4.55
2023-01-10T01:55:18.413Z,4.58
2023-01-10T01:57:46.057Z,4.54
2023-01-10T02:00:13.306Z,4.54
2023-01-10T02:02:57.714Z,4.48
2023-01-10T02:05:30.102Z,4.54
2023-01-10T02:07:59.639Z,4.58
2023-01-10T02:10:29.989Z,4.62
2023-01-10T02:13:02.919Z,4.60
2023-01-10T02:15:29.746Z,4.65
2023-01-10T02:17:58.093Z,4.69
2023-01-10T02:20:24.985Z,4.67
2023-01-10T02:23:20.674Z,4.61
2023-01-10T02:26:05.947Z,4.63
2023-01-10T02:29:07.882Z,4.63
2023-01-10T02:31:52.801Z,4.55
2023-01-10T02:34:34.406Z,4.45
2023-01-10T02:37:23.627Z,4.44
2023-01-10T02:40:34.499Z,4.34
2023-01-10T02:43:13.729Z,4.31
2023-01-10T02:45:47.509Z,4.22
2023-01-10T02:48:13.933Z,4.16
2023-01-10T02:50:43.034Z,4.15
2023-01-10T02:53:18.562Z,4.21
2023-01-10T02:55:53.541Z,4.18
2023-01-10T02:58:36.762Z,4.33
2023-01-10T03:01:18.392Z,4.36
2023-01-10T03:03:47.736Z,4.28
2023-01-10T03:06:28.956Z,4.31
2023-01-10T03:09:04.849Z,4.23
2023-01-10T03:11:41.495Z,4.21
2023-01-10T03:14:25.902Z,4.26
2023-01-10T03:17:07.589Z,4.25
2023-01-10T03:19:54.717Z,4.18
2023-01-10T03:22:21.786Z,4.22
2023-01-10T03:24:50.064Z,4.19
2023-01-10T03:27:28.046Z,4.22
2023-01-10T03:30:08.584Z,4.24
2023-01-10T03:32:35.945Z,4.31
2023-01-10T03:35:04.628Z,4.39
2023-01-10T03:37:44.758Z,4.44
2023-01-10T03:40:28.439Z,4.49
2023-01-10T03:43:32.003Z,4.58
2023-01-10T03:46:04.478Z,4.62
2023-01-10T03:48:36.373Z,4.59
2023-01-10T03:51:05.753Z,4.67
2023-01-10T03:53:33.895Z,4.76
2023-01-10T03:56:00.749Z,4.79
2023-01-10T03:58:29.577Z,4.85
2023-01-10T04:00:56.294Z,4.81
2023-01-10T04:03:22.936Z,4.76
2023-01-10T04:05:49.604Z,4.75
2023-01-10T04:08:15.986Z,4.97
2023-01-10T04:10:42.390Z,5.17
2023-01-10T04:13:08.844Z,5.18
2023-01-10T04:15:35.333Z,5.14
2023-01-10T04:18:01.719Z,5.07
2023-01-10T04:20:28.117Z,5.01
2023-01-10T04:22:54.802Z,4.94
2023-01-10T04:25:22.498Z,4.87
2023-01-10T04:27:50.497Z,4.84
2023-01-10T04:30:18.294Z,4.85
2023-01-10T04:32:44.824Z,4.91
2023-01-10T04:35:11.237Z,4.99
2023-01-10T04:37:37.926Z,5.01
2023-01-10T04:40:05.021Z,4.92
2023-01-10T04:42:31.421Z,4.88
2023-01-10T04:44:57.861Z,4.88
2023-01-10T04:47:24.289Z,4.92
2023-01-10T04:49:50.756Z,4.93
2023-01-10T04:52:17.311Z,4.95
2023-01-10T04:54:43.700Z,4.91
2023-01-10T04:57:10.103Z,4.90
2023-01-10T04:59:36.649Z,4.90
2023-01-10T05:02:03.197Z,4.98
2023-01-10T05:04:29.747Z,4.94
2023-01-10T05:06:56.124Z,4.90
2023-01-10T05:09:22.494Z,4.87
2023-01-10T05:11:48.867Z,4.88
2023-01-10T05:14:15.284Z,4.98
2023-01-10T05:16:41.798Z,5.01
2023-01-10T05:19:08.272Z,5.08
2023-01-10T05:21:34.650Z,5.10
2023-01-10T05:24:01.065Z,5.10
2023-01-10T05:26:27.456Z,5.09
2023-01-10T05:28:53.893Z,5.08
2023-01-10T05:31:20.374Z,5.16
2023-01-10T05:33:48.491Z,5.20
2023-01-10T05:36:15.632Z,5.26
2023-01-10T05:38:42.120Z,5.26
2023-01-10T05:41:08.737Z,5.24
2023-01-10T05:43:35.773Z,5.24
2023-01-10T05:46:02.375Z,5.24
2023-01-10T05:48:28.867Z,5.31
2023-01-10T05:50:55.386Z,5.31
2023-01-10T05:53:21.820Z,5.38
2023-01-10T05:55:59.932Z,5.38
2023-01-10T05:58:26.893Z,5.50
2023-01-10T06:00:55.291Z,5.55
2023-01-10T06:03:22.212Z,5.57
2023-01-10T06:05:49.166Z,5.55
2023-01-10T06:08:16.160Z,5.49
2023-01-10T06:10:43.033Z,5.40
2023-01-10T06:13:09.786Z,5.31
2023-01-10T06:15:36.911Z,5.21
2023-01-10T06:18:03.586Z,5.13
2023-01-10T06:20:30.113Z,5.09
2023-01-10T06:22:56.750Z,5.15
2023-01-10T06:25:23.239Z,5.18
2023-01-10T06:27:49.723Z,5.18
2023-01-10T06:30:16.194Z,5.16
2023-01-10T06:32:42.615Z,5.20
2023-01-10T06:35:10.051Z,5.17
2023-01-10T06:37:36.560Z,5.16
2023-01-10T06:40:04.202Z,5.13
2023-01-10T06:42:30.624Z,5.14
2023-01-10T06:44:57.057Z,5.19
2023-01-10T06:47:23.532Z,5.22
2023-01-10T06:49:49.999Z,5.30
2023-01-10T06:52:16.391Z,5.39
2023-01-10T06:54:42.999Z,5.44
2023-01-10T06:57:09.426Z,5.48
2023-01-10T06:59:36.096Z,5.47
2023-01-10T07:02:02.664Z,5.56
2023-01-10T07:04:29.182Z,5.56
2023-01-10T07:06:55.573Z,5.58
2023-01-10T07:09:22.018Z,5.62
2023-01-10T07:11:49.567Z,5.70
2023-01-10T07:14:15.949Z,5.68
2023-01-10T07:16:42.356Z,5.63
2023-01-10T07:19:08.764Z,5.63
2023-01-10T07:21:35.225Z,5.65
2023-01-10T07:24:02.930Z,5.68
2023-01-10T07:26:29.878Z,5.74
2023-01-10T07:28:56.971Z,5.81
2023-01-10T07:31:24.702Z,5.86
2023-01-10T07:33:52.173Z,5.90
2023-01-10T07:36:18.979Z,5.89
2023-01-10T07:38:45.542Z,5.93
2023-01-10T07:41:12.070Z,6.00
2023-01-10T07:43:38.493Z,6.11
2023-01-10T07:46:10.814Z,6.19
2023-01-10T07:48:38.533Z,6.25
2023-01-10T07:51:05.548Z,6.36
2023-01-10T07:53:32.137Z,6.45
2023-01-10T07:56:00.243Z,6.62
2023-01-10T07:58:27.399Z,6.75
2023-01-10T08:01:02.470Z,6.72
2023-01-10T08:03:30.167Z,6.81
2023-01-10T08:06:05.203Z,6.84
2023-01-10T08:08:33.160Z,6.83
2023-01-10T08:10:59.684Z,6.85
2023-01-10T08:13:26.675Z,6.88
2023-01-10T08:15:53.306Z,6.91
2023-01-10T08:18:21.465Z,6.94
2023-01-10T08:20:53.242Z,6.95
2023-01-10T08:23:20.503Z,6.97
2023-01-10T08:25:47.486Z,7.03
2023-01-10T08:28:14.605Z,7.09
2023-01-10T08:30:41.430Z,7.14
2023-01-10T08:33:09.782Z,7.17
2023-01-10T08:35:38.152Z,7.18
2023-01-10T08:38:04.978Z,7.22
2023-01-10T08:40:31.479Z,7.29
2023-01-10T08:42:59.475Z,7.38
2023-01-10T08:45:25.891Z,7.41
2023-01-10T08:47:53.297Z,7.49
2023-01-10T08:50:19.864Z,7.57
2023-01-10T08:52:46.516Z,7.61
2023-01-10T08:55:13.184Z,7.68
2023-01-10T08:57:39.713Z,7.70
2023-01-10T09:00:06.847Z,7.82
2023-01-10T09:02:33.323Z,7.95
2023-01-10T09:04:59.769Z,8.08
2023-01-10T09:07:26.371Z,8.20
2023-01-10T09:09:52.838Z,8.24
2023-01-10T09:12:37.775Z,8.32
2023-01-10T09:15:06.645Z,8.49
2023-01-10T09:17:33.196Z,8.61
2023-01-10T09:19:59.613Z,8.70
2023-01-10T09:22:27.292Z,8.86
2023-01-10T09:24:53.858Z,8.91
2023-01-10T09:27:20.281Z,8.99
2023-01-10T09:29:46.693Z,9.25
2023-01-10T09:32:13.124Z,9.34
2023-01-10T09:34:39.552Z,9.39
2023-01-10T09:37:06.015Z,9.36
2023-01-10T09:39:34.139Z,9.50
2023-01-10T09:42:37.158Z,9.63
2023-01-10T09:45:28.644Z,9.68
2023-01-10T09:48:03.275Z,9.69
2023-01-10T09:50:51.445Z,9.75
2023-01-10T09:53:25.718Z,9.79
2023-01-10T09:55:55.960Z,9.87
2023-01-10T09:58:31.881Z,9.95
2023-01-10T10:01:20.464Z,10.00
2023-01-10T10:04:11.541Z,10.17
2023-01-10T10:06:38.619Z,10.29
2023-01-10T10:09:05.169Z,10.36
2023-01-10T10:11:59.839Z,10.45
2023-01-10T10:14:44.325Z,10.58
2023-01-10T10:17:52.110Z,10.57
2023-01-10T10:20:36.579Z,10.66
2023-01-10T10:23:18.200Z,10.77
2023-01-10T10:25:56.647Z,10.85
2023-01-10T10:28:53.845Z,10.94
2023-01-10T10:31:29.195Z,11.02
2023-01-10T10:34:20.943Z,11.09
2023-01-10T10:36:53.040Z,11.15
2023-01-10T10:39:27.708Z,11.17
2023-01-10T10:41:56.143Z,11.26
2023-01-10T10:44:44.096Z,11.36
2023-01-10T10:47:22.513Z,11.55
2023-01-10T10:49:59.601Z,11.60
2023-01-10T10:52:31.464Z,11.62
2023-01-10T10:54:59.080Z,11.76
2023-01-10T10:57:28.644Z,11.87
2023-01-10T10:59:56.484Z,11.99
2023-01-10T11:02:25.196Z,11.97
2023-01-10T11:04:55.007Z,12.05
2023-01-10T11:07:22.444Z,12.05
2023-01-10T11:09:54.169Z,12.07
2023-01-10T11:12:23.971Z,12.06
2023-01-10T11:14:52.029Z,12.17
2023-01-10T11:17:25.480Z,12.23
2023-01-10T11:20:04.641Z,12.27
2023-01-10T11:22:43.663Z,12.33
2023-01-10T11:25:19.176Z,12.41
2023-01-10T11:27:54.726Z,12.49
2023-01-10T11:30:30.945Z,12.48
2023-01-10T11:33:01.016Z,12.58
2023-01-10T11:35:32.044Z,12.61
2023-01-10T11:38:19.534Z,12.61
2023-01-10T11:41:00.781Z,12.65
2023-01-10T11:43:34.947Z,12.77
2023-01-10T11:46:03.374Z,12.81
2023-01-10T11:49:04.417Z,12.76
2023-01-10T11:51:39.441Z,12.79
2023-01-10T11:54:16.135Z,12.74
2023-01-10T11:56:54.796Z,12.87
2023-01-10T11:59:21.373Z,12.93
2023-01-10T12:01:56.264Z,12.88
2023-01-10T12:04:23.821Z,12.90
2023-01-10T12:06:53.702Z,12.94
2023-01-10T12:09:42.328Z,12.98
2023-01-10T12:12:20.283Z,12.97
2023-01-10T12:14:47.768Z,13.00
2023-01-10T12:17:43.320Z,12.95
2023-01-10T12:20:14.226Z,13.01
2023-01-10T12:22:43.946Z,13.03
2023-01-10T12:25:22.889Z,13.04
2023-01-10T12:27:52.806Z,13.01
2023-01-10T12:30:38.848Z,13.06
2023-01-10T12:33:16.066Z,13.03
2023-01-10T12:35:45.893Z,13.10
2023-01-10T12:38:58.873Z,13.21
2023-01-10T12:41:55.339Z,13.18
2023-01-10T12:44:26.706Z,13.21
2023-01-10T12:47:13.516Z,13.08
2023-01-10T12:49:59.053Z,13.12
2023-01-10T12:52:42.713Z,13.21
2023-01-10T12:55:25.913Z,13.07
2023-01-10T12:57:58.057Z,13.15
2023-01-10T13:00:40.463Z,13.27
2023-01-10T13:03:19.869Z,13.35
2023-01-10T13:05:49.643Z,13.18
2023-01-10T13:08:21.108Z,13.16
2023-01-10T13:10:48.950Z,13.18
2023-01-10T13:13:56.836Z,13.08
2023-01-10T13:16:42.228Z,13.04
2023-01-10T13:19:11.651Z,13.00
2023-01-10T13:21:39.970Z,13.02
2023-01-10T13:24:15.432Z,13.09
2023-01-10T13:26:58.548Z,13.16
2023-01-10T13:29:29.820Z,13.07
2023-01-10T13:32:01.264Z,13.05
2023-01-10T13:34:34.327Z,13.01
2023-01-10T13:37:04.561Z,13.06
2023-01-10T13:39:39.876Z,13.06
2023-01-10T13:42:24.856Z,13.05
2023-01-10T13:45:21.887Z,13.09
2023-01-10T13:47:54.291Z,13.05
2023-01-10T13:50:44.010Z,13.02
2023-01-10T13:53:12.736Z,12.96
2023-01-10T13:55:39.187Z,12.98
2023-01-10T13:58:45.478Z,12.92
2023-01-10T14:01:44.562Z,12.90
2023-01-10T14:04:55.968Z,12.97
2023-01-10T14:07:55.866Z,12.96
2023-01-10T14:10:24.175Z,12.87
2023-01-10T14:13:09.328Z,12.90
2023-01-10T14:15:41.139Z,12.79
2023-01-10T14:18:21.313Z,12.75
2023-01-10T14:21:08.388Z,12.79
2023-01-10T14:23:38.683Z,12.74
2023-01-10T14:26:22.878Z,12.67
2023-01-10T14:28:50.432Z,12.66
2023-01-10T14:31:22.542Z,12.70
2023-01-10T14:33:50.230Z,12.64
2023-01-10T14:36:25.394Z,12.44
2023-01-10T14:38:56.944Z,12.30
2023-01-10T14:41:37.638Z,12.20
2023-01-10T14:44:13.818Z,12.17
2023-01-10T14:46:46.183Z,12.16
2023-01-10T14:49:31.043Z,12.13
2023-01-10T14:52:16.082Z,12.16
2023-01-10T14:54:42.883Z,12.03
2023-01-10T14:57:18.856Z,11.88
2023-01-10T14:59:45.488Z,11.78
2023-01-10T15:02:29.459Z,11.68
2023-01-10T15:04:55.962Z,11.62
2023-01-10T15:07:24.261Z,11.55
2023-01-10T15:09:52.715Z,11.49
2023-01-10T15:12:21.178Z,11.48
2023-01-10T15:14:49.484Z,11.44
2023-01-10T15:17:22.420Z,11.41
2023-01-10T15:19:52.291Z,11.38
2023-01-10T15:22:31.356Z,11.38
2023-01-10T15:25:06.025Z,11.34
2023-01-10T15:27:33.875Z,11.34
2023-01-10T15:30:01.353Z,11.38
2023-01-10T15:32:35.338Z,11.26
2023-01-10T15:35:02.335Z,11.05
2023-01-10T15:37:36.604Z,10.88
2023-01-10T15:40:06.630Z,10.74
2023-01-10T15:42:33.246Z,10.65
2023-01-10T15:45:22.572Z,10.62
2023-01-10T15:47:48.965Z,10.55
2023-01-10T15:50:18.423Z,10.41
2023-01-10T15:52:54.027Z,10.25
2023-01-10T15:55:51.304Z,10.02
2023-01-10T15:58:26.444Z,9.90
2023-01-10T16:00:55.256Z,9.74
2023-01-10T16:03:35.976Z,9.58
2023-01-10T16:06:08.762Z,9.47
2023-01-10T16:08:38.283Z,9.40
2023-01-10T16:11:07.772Z,9.32
2023-01-10T16:13:36.572Z,9.22
2023-01-10T16:16:08.226Z,9.21
2023-01-10T16:18:34.678Z,9.29
2023-01-10T16:21:02.682Z,9.26
2023-01-10T16:23:34.463Z,9.23
2023-01-10T16:26:04.905Z,9.20
2023-01-10T16:28:36.022Z,9.23
2023-01-10T16:31:06.417Z,9.24
2023-01-10T16:33:33.199Z,9.27
2023-01-10T16:36:00.698Z,9.31
2023-01-10T16:38:28.762Z,9.34
2023-01-10T16:41:00.809Z,9.42
2023-01-10T16:43:29.142Z,9.43
2023-01-10T16:46:01.082Z,9.21
2023-01-10T16:48:30.179Z,8.98
2023-01-10T16:51:18.366Z,8.82
2023-01-10T16:53:45.790Z,8.76
2023-01-10T16:56:14.849Z,8.70
2023-01-10T16:58:41.335Z,8.62
2023-01-10T17:01:16.583Z,8.58
2023-01-10T17:03:43.647Z,8.51
2023-01-10T17:06:15.224Z,8.49
2023-01-10T17:08:42.486Z,8.48
2023-01-10T17:11:16.257Z,8.51
2023-01-10T17:13:45.106Z,8.51
2023-01-10T17:16:12.308Z,8.67
2023-01-10T17:18:39.569Z,8.52
2023-01-10T17:21:06.496Z,8.43
2023-01-10T17:23:32.970Z,8.35
2023-01-10T17:26:04.803Z,8.37
2023-01-10T17:28:31.873Z,8.38
2023-01-10T17:30:59.030Z,8.35
2023-01-10T17:33:26.800Z,8.21
2023-01-10T17:35:55.416Z,7.95
2023-01-10T17:38:22.618Z,7.76
2023-01-10T17:40:49.058Z,7.75
2023-01-10T17:43:16.908Z,7.77
2023-01-10T17:45:46.377Z,7.74
2023-01-10T17:48:15.912Z,7.75
2023-01-10T17:50:43.365Z,7.60
2023-01-10T17:53:10.775Z,7.39
2023-01-10T17:55:43.215Z,7.25
2023-01-10T17:58:09.606Z,7.16
2023-01-10T18:00:36.026Z,7.19
2023-01-10T18:03:02.504Z,7.19
2023-01-10T18:05:29.036Z,7.13
2023-01-10T18:07:55.994Z,7.13
2023-01-10T18:10:22.456Z,7.09
2023-01-10T18:12:48.880Z,6.94
2023-01-10T18:15:15.428Z,6.84
2023-01-10T18:17:41.894Z,6.90
2023-01-10T18:20:09.206Z,6.86
2023-01-10T18:22:53.924Z,6.73
2023-01-10T18:25:20.393Z,6.72
2023-01-10T18:27:50.260Z,6.74
2023-01-10T18:30:22.104Z,6.77
2023-01-10T18:32:49.997Z,6.70
2023-01-10T18:35:16.839Z,6.79
2023-01-10T18:37:43.794Z,6.77
2023-01-10T18:40:10.936Z,6.64
2023-01-10T18:42:37.947Z,6.75
2023-01-10T18:45:06.223Z,6.85
2023-01-10T18:47:33.019Z,6.87
2023-01-10T18:49:59.548Z,6.85
2023-01-10T18:52:26.097Z,6.76
2023-01-10T18:54:52.560Z,6.69
2023-01-10T18:57:19.396Z,6.72
2023-01-10T18:59:46.031Z,6.73
2023-01-10T19:02:13.797Z,6.68
2023-01-10T19:04:40.290Z,6.73
2023-01-10T19:07:07.029Z,6.67
2023-01-10T19:09:33.538Z,6.60
2023-01-10T19:11:59.998Z,6.45
2023-01-10T19:14:26.462Z,6.38
2023-01-10T19:16:52.861Z,6.34
2023-01-10T19:19:19.283Z,6.39
2023-01-10T19:21:45.726Z,6.46
2023-01-10T19:24:20.049Z,6.52
2023-01-10T19:26:46.497Z,6.58
2023-01-10T19:29:12.898Z,6.55
2023-01-10T19:31:39.458Z,6.36
2023-01-10T19:34:05.960Z,6.13
2023-01-10T19:36:34.599Z,6.10
2023-01-10T19:39:01.124Z,6.10
2023-01-10T19:41:29.040Z,6.22
2023-01-10T19:44:00.720Z,6.24
2023-01-10T19:46:28.319Z,6.11
2023-01-10T19:48:56.348Z,6.00
2023-01-10T19:51:22.947Z,5.98
2023-01-10T19:53:49.363Z,5.91
2023-01-10T19:56:19.765Z,5.70
2023-01-10T19:58:46.233Z,5.49
2023-01-10T20:01:16.271Z,5.46
2023-01-10T20:03:46.547Z,5.55
2023-01-10T20:06:16.840Z,5.51
2023-01-10T20:08:44.829Z,5.44
2023-01-10T20:11:11.453Z,5.32
2023-01-10T20:13:44.445Z,5.31
2023-01-10T20:16:16.781Z,5.59
2023-01-10T20:18:43.605Z,5.83
2023-01-10T20:21:11.763Z,5.98
2023-01-10T20:23:39.666Z,6.00
2023-01-10T20:26:14.046Z,6.05
2023-01-10T20:28:41.606Z,6.05
2023-01-10T20:31:10.014Z,6.07
2023-01-10T20:33:36.584Z,5.98
2023-01-10T20:36:08.305Z,5.94
2023-01-10T20:38:36.604Z,5.91
2023-01-10T20:41:10.235Z,6.01
2023-01-10T20:43:37.297Z,6.03
2023-01-10T20:46:08.490Z,5.93
2023-01-10T20:48:35.015Z,5.87
2023-01-10T20:51:01.706Z,5.84
2023-01-10T20:53:28.486Z,5.79
2023-01-10T20:55:59.965Z,5.72
2023-01-10T20:58:26.816Z,5.72
2023-01-10T21:00:53.477Z,5.71
2023-01-10T21:03:19.889Z,5.51
2023-01-10T21:05:54.050Z,5.51
2023-01-10T21:08:24.576Z,5.57
2023-01-10T21:10:52.605Z,5.63
2023-01-10T21:13:19.262Z,5.39
2023-01-10T21:15:46.960Z,5.31
2023-01-10T21:18:15.826Z,5.24
2023-01-10T21:20:43.736Z,5.26
2023-01-10T21:23:10.946Z,5.28
2023-01-10T21:25:37.482Z,5.39
2023-01-10T21:28:09.377Z,5.50
2023-01-10T21:30:37.292Z,5.52
2023-01-10T21:33:03.856Z,5.56
2023-01-10T21:35:30.334Z,5.51
2023-01-10T21:37:57.540Z,5.46
2023-01-10T21:40:25.433Z,5.38
2023-01-10T21:42:52.602Z,5.34
2023-01-10T21:45:21.201Z,5.28
2023-01-10T21:47:51.904Z,5.17
2023-01-10T21:50:22.168Z,5.03
2023-01-10T21:52:49.071Z,5.03
2023-01-10T21:55:16.646Z,5.12
2023-01-10T21:57:43.141Z,5.16
2023-01-10T22:00:10.349Z,5.23
2023-01-10T22:02:36.832Z,5.28
2023-01-10T22:05:03.330Z,5.27
2023-01-10T22:07:30.050Z,5.18
2023-01-10T22:09:56.511Z,5.26
2023-01-10T22:12:24.822Z,5.07
2023-01-10T22:14:51.540Z,5.02
2023-01-10T22:17:18.200Z,5.02
2023-01-10T22:19:44.812Z,5.19
2023-01-10T22:22:11.513Z,5.38
2023-01-10T22:24:38.080Z,5.50
2023-01-10T22:27:05.042Z,5.45
2023-01-10T22:29:31.623Z,5.13
2023-01-10T22:31:58.118Z,4.89
2023-01-10T22:34:24.655Z,4.81
2023-01-10T22:36:51.121Z,4.77
2023-01-10T22:39:17.802Z,4.66
2023-01-10T22:41:44.217Z,4.50
2023-01-10T22:44:20.115Z,4.17
2023-01-10T22:46:47.399Z,4.16
2023-01-10T22:49:13.814Z,4.34
2023-01-10T22:51:40.429Z,4.40
2023-01-10T22:54:07.450Z,4.22
2023-01-10T22:56:34.005Z,4.15
2023-01-10T22:59:00.431Z,4.08
2023-01-10T23:01:26.908Z,4.06
2023-01-10T23:03:53.455Z,3.95
2023-01-10T23:06:20.357Z,3.96
2023-01-10T23:08:47.280Z,3.94
2023-01-10T23:11:18.383Z,3.95
2023-01-10T23:13:45.957Z,3.97
2023-01-10T23:16:18.404Z,3.87
2023-01-10T23:18:44.892Z,3.82
2023-01-10T23:21:11.304Z,3.74
2023-01-10T23:23:37.739Z,3.71
2023-01-10T23:26:07.036Z,3.64
2023-01-10T23:28:40.200Z,3.69
2023-01-10T23:31:07.522Z,3.61
2023-01-10T23:33:34.648Z,3.61
2023-01-10T23:36:01.263Z,3.52
2023-01-10T23:38:28.584Z,3.58
2023-01-10T23:40:55.704Z,3.47
2023-01-10T23:43:22.977Z,3.32
2023-01-10T23:45:49.700Z,3.39
2023-01-10T23:48:16.645Z,3.40
2023-01-10T23:50:43.099Z,3.32
2023-01-10T23:53:09.564Z,3.30
2023-01-10T23:55:36.070Z,3.41
2023-01-10T23:58:02.712Z,3.16
